Time;durP1;ratioP1;P1;durP2;ratioP2;P2;SDS_P1;SDS_P2;PMS_P1;PMS_P2;Temp;Humidity;BMP_temperature;BMP_pressure;BME280_temperature;BME280_humidity;BME280_pressure;Samples;Min_cycle;Max_cycle;Signal;HPM_P1;HPM_P2
2022/11/12 00:02:16;;;;;;;41.58;23.35;;;;;;;7.58;75.16;100029.22;5073146;28;20016;-70
2022/11/12 00:04:41;;;;;;;44.17;24.38;;;;;;;7.53;75.12;100028.28;5055457;28;20036;-70
2022/11/12 00:07:07;;;;;;;41.78;22.98;;;;;;;7.49;75.06;100035.28;5073570;28;20475;-70
2022/11/12 00:09:32;;;;;;;40.88;23.42;;;;;;;7.46;75.59;100039.31;5070656;28;20024;-70
2022/11/12 00:11:57;;;;;;;41.95;22.73;;;;;;;7.45;75.60;100057.59;5071868;28;20043;-70
2022/11/12 00:14:23;;;;;;;39.65;22.63;;;;;;;7.49;75.60;100046.22;5054896;28;20494;-70
2022/11/12 00:16:48;;;;;;;40.95;22.00;;;;;;;7.52;75.28;100041.09;5070067;28;20028;-69
2022/11/12 00:19:13;;;;;;;36.58;21.85;;;;;;;7.55;75.42;100045.25;5070646;28;20028;-69
2022/11/12 00:21:39;;;;;;;43.60;23.25;;;;;;;7.57;75.55;100043.09;5071929;28;20130;-69
2022/11/12 00:24:04;;;;;;;44.50;24.38;;;;;;;7.55;75.27;100056.16;5072913;28;20402;-70
2022/11/12 00:26:30;;;;;;;41.88;23.05;;;;;;;7.52;75.33;100049.28;5071711;28;20037;-69
2022/11/12 00:28:55;;;;;;;43.33;24.02;;;;;;;7.49;75.14;100055.22;5054578;28;20020;-69
2022/11/12 00:31:20;;;;;;;38.20;22.90;;;;;;;7.49;75.41;100066.13;5072913;28;20074;-69
2022/11/12 00:33:46;;;;;;;42.47;24.00;;;;;;;7.47;75.24;100057.34;5073397;28;20029;-69
2022/11/12 00:36:11;;;;;;;44.58;24.83;;;;;;;7.45;75.12;100065.78;5073698;28;20039;-69
2022/11/12 00:38:37;;;;;;;40.60;23.08;;;;;;;7.44;75.13;100058.66;5073177;28;20032;-69
2022/11/12 00:41:02;;;;;;;38.00;22.20;;;;;;;7.43;75.47;100065.19;5073614;28;20029;-69
2022/11/12 00:43:28;;;;;;;39.50;23.00;;;;;;;7.41;75.41;100072.78;5072872;28;20033;-68
2022/11/12 00:45:53;;;;;;;39.63;23.20;;;;;;;7.41;75.55;100061.88;5072041;28;20031;-69
2022/11/12 00:48:19;;;;;;;41.08;23.75;;;;;;;7.39;75.36;100049.50;5068011;28;20117;-69
2022/11/12 00:50:44;;;;;;;38.85;22.98;;;;;;;7.36;75.72;100053.56;5070867;28;20044;-70
2022/11/12 00:53:09;;;;;;;39.00;22.20;;;;;;;7.33;75.75;100054.03;5071629;28;20074;-69
2022/11/12 00:55:35;;;;;;;38.67;22.20;;;;;;;7.28;75.55;100059.34;5071264;28;20021;-69
2022/11/12 00:58:00;;;;;;;34.92;20.05;;;;;;;7.26;75.39;100058.75;5070088;28;20028;-69
2022/11/12 01:00:26;;;;;;;37.75;20.20;;;;;;;7.25;75.73;100062.53;5071277;28;20024;-69
2022/11/12 01:02:51;;;;;;;36.08;20.05;;;;;;;7.23;75.52;100061.94;5070659;28;20465;-69
2022/11/12 01:05:17;;;;;;;32.63;19.70;;;;;;;7.21;75.23;100064.06;5070961;28;20052;-69
2022/11/12 01:07:43;;;;;;;32.97;20.02;;;;;;;7.18;75.66;100059.09;5070146;28;20027;-68
2022/11/12 01:10:09;;;;;;;32.53;19.40;;;;;;;7.15;75.89;100066.66;5070526;28;20412;-68
2022/11/12 01:12:35;;;;;;;31.92;18.73;;;;;;;7.14;75.35;100059.56;5070540;28;20025;-69
2022/11/12 01:15:01;;;;;;;31.45;19.38;;;;;;;7.13;75.59;100052.44;5070663;28;20455;-69
2022/11/12 01:17:27;;;;;;;32.85;19.83;;;;;;;7.12;75.83;100058.97;5070522;28;20039;-69
2022/11/12 01:19:52;;;;;;;32.58;18.02;;;;;;;7.10;75.73;100055.66;5070582;28;20396;-69
2022/11/12 01:22:18;;;;;;;36.33;19.98;;;;;;;7.09;76.01;100058.59;5070410;28;20024;-68
2022/11/12 01:24:43;;;;;;;30.75;19.27;;;;;;;7.07;75.68;100056.13;5070764;28;20249;-69
2022/11/12 01:27:08;;;;;;;32.80;19.65;;;;;;;7.06;76.14;100053.59;5071476;28;20449;-69
2022/11/12 01:29:34;;;;;;;31.80;19.15;;;;;;;7.03;75.86;100063.09;5071514;28;20024;-69
2022/11/12 01:31:59;;;;;;;34.80;20.10;;;;;;;7.02;76.27;100055.13;5071726;28;20060;-68
2022/11/12 01:34:25;;;;;;;33.10;19.63;;;;;;;6.99;75.99;100060.00;5072411;28;20028;-69
2022/11/12 01:36:50;;;;;;;39.40;21.48;;;;;;;6.98;76.13;100052.88;5069963;28;20029;-69
2022/11/12 01:39:16;;;;;;;34.47;20.27;;;;;;;6.97;75.99;100062.13;5070776;28;20055;-69
2022/11/12 01:41:41;;;;;;;35.42;21.33;;;;;;;6.97;75.94;100055.84;5071048;28;20029;-69
2022/11/12 01:44:34;;;;;;;33.13;20.33;;;;;;;6.92;76.22;100059.28;5070142;28;20039;-69
2022/11/12 01:47:24;;;;;;;33.50;19.75;;;;;;;6.91;75.98;100052.16;5065667;28;20037;-69
2022/11/12 01:49:55;;;;;;;31.25;20.17;;;;;;;6.94;76.04;100065.31;5069092;28;20082;-69
2022/11/12 01:52:40;;;;;;;30.40;19.42;;;;;;;6.93;75.75;100063.66;5069724;28;20066;-69
2022/11/12 01:55:11;;;;;;;55.42;25.88;;;;;;;6.94;76.10;100050.84;5071213;28;20047;-69
2022/11/12 01:57:42;;;;;;;45.60;22.90;;;;;;;6.94;76.18;100051.66;5071952;28;20025;-69
2022/11/12 02:00:10;;;;;;;45.47;23.40;;;;;;;6.95;75.87;100050.59;5071355;28;20044;-70
2022/11/12 02:02:36;;;;;;;69.43;29.85;;;;;;;6.95;75.80;100055.25;5071754;28;20218;-69
2022/11/12 02:05:06;;;;;;;62.58;28.45;;;;;;;6.96;75.87;100056.91;5070366;28;20052;-69
2022/11/12 02:07:34;;;;;;;43.47;22.80;;;;;;;6.96;75.82;100063.19;5070366;28;20024;-69
2022/11/12 02:10:02;;;;;;;36.70;20.92;;;;;;;6.97;75.83;100055.84;5070994;28;20029;-69
2022/11/12 02:15:12;;;;;;;36.78;21.60;;;;;;;6.92;75.77;100047.53;5071621;28;20082;-69
2022/11/12 02:17:37;;;;;;;32.15;19.98;;;;;;;6.88;75.46;100051.78;5071137;28;20024;-69
2022/11/12 02:20:03;;;;;;;39.25;21.02;;;;;;;6.88;75.75;100058.09;5070091;28;20065;-69
2022/11/12 02:22:29;;;;;;;40.95;22.98;;;;;;;6.87;75.72;100052.84;5071497;28;20017;-69
2022/11/12 02:24:54;;;;;;;39.97;22.85;;;;;;;6.87;75.44;100041.94;5071723;28;20059;-69
2022/11/12 02:27:20;;;;;;;41.70;22.85;;;;;;;6.87;75.91;100050.13;5065474;28;20047;-68
2022/11/12 02:29:45;;;;;;;39.47;22.33;;;;;;;6.86;75.86;100043.84;5092376;28;20020;-69
2022/11/12 02:32:12;;;;;;;37.78;21.45;;;;;;;6.84;76.10;100045.97;5091477;28;20050;-69
2022/11/12 02:34:39;;;;;;;38.55;21.73;;;;;;;6.81;75.72;100047.25;5091794;28;20024;-69
2022/11/12 02:37:05;;;;;;;35.08;21.40;;;;;;;6.80;75.77;100051.03;5092291;28;20031;-69
2022/11/12 02:39:30;;;;;;;30.80;19.40;;;;;;;6.80;76.11;100052.94;5092048;28;20031;-69
2022/11/12 02:41:56;;;;;;;29.92;19.10;;;;;;;6.81;75.83;100049.97;5091138;28;20395;-69
2022/11/12 02:44:21;;;;;;;34.03;20.20;;;;;;;6.81;75.69;100049.97;5091817;28;20016;-69
2022/11/12 02:46:46;;;;;;;29.02;19.25;;;;;;;6.80;75.73;100051.03;5091696;28;20053;-69
2022/11/12 02:49:12;;;;;;;33.10;19.33;;;;;;;6.80;75.58;100059.22;5091392;28;20377;-69
2022/11/12 02:51:37;;;;;;;30.65;18.65;;;;;;;6.79;75.73;100056.75;5090869;28;20035;-69
2022/11/12 02:54:02;;;;;;;36.00;20.55;;;;;;;6.79;75.49;100064.91;5091209;28;20460;-70
2022/11/12 02:56:28;;;;;;;32.35;20.35;;;;;;;6.78;75.39;100068.72;5091334;28;20024;-69
2022/11/12 02:58:53;;;;;;;33.20;20.77;;;;;;;6.77;75.68;100065.13;5091391;28;20648;-69
2022/11/12 03:01:18;;;;;;;33.78;19.88;;;;;;;6.75;75.34;100066.44;5090887;28;20028;-69
2022/11/12 03:03:44;;;;;;;30.50;19.70;;;;;;;6.72;75.44;100067.75;5091176;28;20028;-69
2022/11/12 03:06:09;;;;;;;33.45;20.00;;;;;;;6.70;75.35;100067.16;5091013;28;20043;-69
2022/11/12 03:08:35;;;;;;;32.13;18.70;;;;;;;6.68;75.11;100059.19;5091383;28;20031;-69
2022/11/12 03:11:12;;;;;;;29.92;18.80;;;;;;;6.66;75.37;100060.50;5090820;28;20112;-69
2022/11/12 03:13:37;;;;;;;29.48;19.52;;;;;;;6.64;75.32;100052.53;5090944;28;20082;-69
2022/11/12 03:16:03;;;;;;;32.63;19.88;;;;;;;6.65;75.38;100061.56;5091034;28;20047;-69
2022/11/12 03:18:29;;;;;;;31.67;18.98;;;;;;;6.63;75.21;100058.22;5090594;28;20472;-69
2022/11/12 03:20:54;;;;;;;28.85;19.33;;;;;;;6.61;75.62;100074.78;5088582;28;20494;-69
2022/11/12 03:23:19;;;;;;;28.70;19.30;;;;;;;6.60;75.27;100061.41;5089613;28;20024;-70
2022/11/12 03:25:45;;;;;;;29.52;18.73;;;;;;;6.59;75.18;100062.47;5086601;28;20144;-70
2022/11/12 03:28:13;;;;;;;29.65;18.08;;;;;;;6.58;75.25;100069.81;5070207;28;20032;-70
2022/11/12 03:30:40;;;;;;;29.55;17.45;;;;;;;6.57;75.36;100059.97;5069794;28;20028;-69
2022/11/12 03:33:08;;;;;;;30.50;18.35;;;;;;;6.57;75.00;100061.88;5069777;28;20066;-69
2022/11/12 03:35:34;;;;;;;31.20;18.92;;;;;;;6.55;74.94;100062.09;5052710;28;20024;-69
2022/11/12 03:38:01;;;;;;;27.50;17.20;;;;;;;6.54;75.12;100061.25;5070564;28;20035;-69
2022/11/12 03:40:27;;;;;;;29.02;17.75;;;;;;;6.52;75.14;100059.84;5070417;28;20029;-69
2022/11/12 03:42:53;;;;;;;30.02;18.80;;;;;;;6.51;75.23;100055.47;5069673;28;20035;-69
2022/11/12 03:45:21;;;;;;;27.95;17.27;;;;;;;6.48;75.21;100050.47;5070593;28;20033;-69
2022/11/12 03:47:48;;;;;;;28.10;17.88;;;;;;;6.46;74.88;100050.69;5070235;28;20024;-69
2022/11/12 03:50:15;;;;;;;30.92;18.83;;;;;;;6.45;74.81;100050.91;5069635;28;20024;-70
2022/11/12 03:52:45;;;;;;;27.15;18.13;;;;;;;6.43;74.85;100045.69;5068912;28;20032;-70
2022/11/12 03:55:11;;;;;;;;;;;;;;;6.43;74.88;100042.13;5069221;28;20047;-69
2022/11/12 03:57:36;;;;;;;27.63;17.13;;;;;;;6.42;74.82;100040.47;5064600;28;19942;-70
2022/11/12 04:00:04;;;;;;;29.50;18.27;;;;;;;6.38;74.70;100049.09;5068834;28;20024;-70
2022/11/12 04:02:30;;;;;;;28.92;18.17;;;;;;;6.35;74.56;100040.53;5068398;28;20037;-69
2022/11/12 04:10:23;;;;;;;31.23;18.02;;;;;;;6.28;74.77;100042.53;5069664;28;20043;-70
2022/11/12 04:15:32;;;;;;;32.83;18.90;;;;;;;6.23;74.57;100029.59;5070018;28;20039;-69
2022/11/12 04:23:25;;;;;;;31.13;17.67;;;;;;;6.16;74.93;100037.00;5067086;28;20507;-69
2022/11/12 04:28:35;;;;;;;31.88;18.52;;;;;;;6.11;74.66;100029.53;5067180;28;20392;-69
2022/11/12 04:31:01;;;;;;;29.55;18.00;;;;;;;6.11;74.86;100033.06;5068605;28;20021;-69
2022/11/12 04:33:26;;;;;;;29.73;17.95;;;;;;;6.09;74.92;100024.31;5069594;28;20025;-70
2022/11/12 04:35:52;;;;;;;30.05;18.17;;;;;;;6.07;74.99;100028.31;5069715;28;20021;-69
2022/11/12 04:38:17;;;;;;;28.70;17.52;;;;;;;6.06;74.58;100021.19;5069595;28;20071;-69
2022/11/12 04:46:14;;;;;;;31.33;19.23;;;;;;;6.02;74.58;100029.00;5073419;28;20416;-70
2022/11/12 04:48:40;;;;;;;38.42;19.98;;;;;;;5.97;74.46;100029.63;5072621;28;20021;-69
2022/11/12 04:52:03;;;;;;;34.47;19.20;;;;;;;5.94;74.38;100027.38;5072631;28;20055;-69
2022/11/12 04:53:51;;;;;;;33.97;19.00;;;;;;;5.94;74.87;100021.09;5072489;28;20477;-70
2022/11/12 04:56:16;;;;;;;32.42;19.83;;;;;;;5.93;74.77;100024.88;5072240;28;20032;-69
2022/11/12 04:58:41;;;;;;;32.33;18.80;;;;;;;5.91;74.79;100021.56;5072510;28;20362;-69
2022/11/12 05:01:07;;;;;;;30.00;17.95;;;;;;;5.90;74.49;100028.91;5071501;28;20039;-69
2022/11/12 05:03:32;;;;;;;29.55;18.52;;;;;;;5.89;74.61;100034.56;5069059;28;20107;-70
2022/11/12 05:06:03;;;;;;;30.45;19.00;;;;;;;5.88;74.52;100030.19;5071538;28;20024;-69
2022/11/12 05:08:28;;;;;;;31.45;18.92;;;;;;;5.88;74.83;100032.91;5070525;28;20460;-70
2022/11/12 05:10:53;;;;;;;31.55;18.42;;;;;;;5.88;74.93;100027.44;5071126;28;20047;-69
2022/11/12 05:13:19;;;;;;;31.15;19.20;;;;;;;5.87;74.84;100033.97;5071394;28;20040;-69
2022/11/12 05:15:44;;;;;;;29.50;18.73;;;;;;;5.87;75.05;100028.50;5070793;28;20083;-70
2022/11/12 05:18:09;;;;;;;31.67;18.17;;;;;;;5.87;74.67;100032.09;5071461;28;20023;-69
2022/11/12 05:20:35;;;;;;;30.48;17.95;;;;;;;5.85;74.74;100036.91;5071374;28;20028;-69
2022/11/12 05:23:00;;;;;;;31.10;19.08;;;;;;;5.85;74.58;100030.63;5070863;28;20476;-70
2022/11/12 05:25:26;;;;;;;30.67;19.15;;;;;;;5.82;74.93;100035.47;5070654;28;20032;-70
2022/11/12 05:27:51;;;;;;;26.92;18.13;;;;;;;5.84;74.63;100037.13;5071504;28;20024;-69
2022/11/12 05:30:17;;;;;;;28.02;17.88;;;;;;;5.83;74.39;100039.03;5070997;28;20032;-69
2022/11/12 05:32:42;;;;;;;26.63;17.55;;;;;;;5.80;74.67;100036.75;5052752;28;20060;-70
2022/11/12 05:35:07;;;;;;;29.88;17.88;;;;;;;5.77;74.51;100035.31;5071094;28;20480;-69
2022/11/12 05:37:33;;;;;;;30.75;18.33;;;;;;;5.76;74.63;100030.09;5070950;28;20055;-69
2022/11/12 05:39:58;;;;;;;36.58;21.75;;;;;;;5.75;74.48;100037.41;5070692;28;20028;-70
2022/11/12 05:42:24;;;;;;;38.35;22.65;;;;;;;5.74;75.07;100043.91;5070818;28;20490;-70
2022/11/12 05:44:49;;;;;;;35.00;22.45;;;;;;;5.76;74.83;100043.72;5070900;28;20024;-70
2022/11/12 05:47:15;;;;;;;33.40;19.85;;;;;;;5.75;74.82;100044.78;5070594;28;20524;-70
2022/11/12 05:49:40;;;;;;;35.13;20.10;;;;;;;5.76;74.82;100041.81;5070659;28;20028;-70
2022/11/12 05:52:06;;;;;;;30.85;18.25;;;;;;;5.77;74.87;100048.09;5069441;28;20040;-69
2022/11/12 05:54:31;;;;;;;32.95;20.35;;;;;;;5.77;75.31;100048.09;5070749;28;20135;-69
2022/11/12 05:56:56;;;;;;;30.25;18.75;;;;;;;5.75;74.98;100050.22;5070572;28;20377;-70
2022/11/12 05:59:22;;;;;;;33.53;19.90;;;;;;;5.75;74.73;100050.22;5070692;28;20025;-69
2022/11/12 06:01:47;;;;;;;30.42;18.38;;;;;;;5.75;74.96;100051.03;5070859;28;20044;-70
2022/11/12 06:04:14;;;;;;;28.50;17.13;;;;;;;5.73;74.83;100050.41;5070541;28;20021;-69
2022/11/12 06:06:40;;;;;;;32.15;18.10;;;;;;;5.72;74.65;100048.75;5070148;28;20490;-69
2022/11/12 06:09:06;;;;;;;32.85;19.50;;;;;;;5.70;74.98;100056.34;5069603;28;20108;-69
2022/11/12 06:11:33;;;;;;;31.67;18.50;;;;;;;5.67;74.64;100059.50;5069469;28;20063;-69
2022/11/12 06:13:59;;;;;;;43.20;24.05;;;;;;;5.66;74.92;100063.28;5052603;28;20029;-70
2022/11/12 06:16:25;;;;;;;42.05;23.85;;;;;;;5.67;74.67;100059.50;5070554;28;20039;-70
2022/11/12 06:18:50;;;;;;;34.90;20.40;;;;;;;5.71;74.93;100071.59;5070181;28;20021;-70
2022/11/12 06:21:18;;;;;;;28.63;17.70;;;;;;;5.75;74.92;100064.66;5070017;28;20111;-70
2022/11/12 06:23:44;;;;;;;30.13;16.98;;;;;;;5.77;74.69;100070.69;5070405;28;20201;-70
2022/11/12 06:26:09;;;;;;;31.48;18.13;;;;;;;5.84;75.17;100075.25;5070707;28;20808;-70
2022/11/12 06:28:34;;;;;;;33.25;18.33;;;;;;;5.87;75.11;100081.09;5069885;28;20077;-70
2022/11/12 06:31:00;;;;;;;28.08;18.52;;;;;;;5.90;74.71;100071.63;5070588;28;20028;-70
2022/11/12 06:33:27;;;;;;;27.95;17.25;;;;;;;5.94;74.67;100081.00;5071077;28;20028;-70
2022/11/12 06:36:01;;;;;;;26.83;17.08;;;;;;;5.97;74.94;100078.66;5071331;28;20024;-70
2022/11/12 06:38:35;;;;;;;28.17;16.38;;;;;;;6.01;74.79;100080.97;5070506;28;20032;-71
2022/11/12 06:41:01;;;;;;;27.50;16.85;;;;;;;6.04;74.28;100083.25;5070569;28;20024;-70
2022/11/12 06:43:29;;;;;;;31.30;19.42;;;;;;;6.06;74.34;100089.28;5071052;28;20024;-70
2022/11/12 06:45:59;;;;;;;31.98;19.02;;;;;;;6.10;74.69;100087.78;5052882;28;20033;-70
2022/11/12 06:48:24;;;;;;;35.10;19.30;;;;;;;6.11;74.54;100090.28;5070863;28;20032;-70
2022/11/12 06:50:50;;;;;;;31.48;18.70;;;;;;;6.11;74.77;100081.28;5070313;28;20788;-70
2022/11/12 06:53:15;;;;;;;31.45;18.85;;;;;;;6.14;74.78;100091.72;5070609;28;20452;-70
2022/11/12 06:55:40;;;;;;;30.83;19.80;;;;;;;6.15;74.50;100093.41;5071065;28;20021;-70
2022/11/12 06:58:06;;;;;;;36.92;21.27;;;;;;;6.18;74.57;100090.22;5070216;28;20046;-70
2022/11/12 07:00:31;;;;;;;30.45;19.75;;;;;;;6.22;74.64;100088.72;5070863;28;20032;-70
2022/11/12 07:02:56;;;;;;;32.13;19.60;;;;;;;6.27;74.82;100098.09;5070080;28;20077;-70
2022/11/12 07:05:22;;;;;;;33.33;21.20;;;;;;;6.31;74.76;100086.50;5070724;28;20109;-69
2022/11/12 07:07:47;;;;;;;35.17;20.85;;;;;;;6.36;74.83;100089.38;5052500;28;20040;-70
2022/11/12 07:10:12;;;;;;;32.00;19.38;;;;;;;6.38;74.51;100095.44;5070713;28;20031;-70
2022/11/12 07:12:38;;;;;;;34.42;19.92;;;;;;;6.42;74.98;100100.44;5070642;28;20043;-71
2022/11/12 07:15:04;;;;;;;33.88;20.23;;;;;;;6.45;74.60;100102.69;5070656;28;20021;-70
2022/11/12 07:17:29;;;;;;;33.03;19.13;;;;;;;6.49;75.08;100098.47;5052868;28;20056;-70
2022/11/12 07:19:55;;;;;;;35.83;19.67;;;;;;;6.56;74.69;100093.72;5070052;28;20056;-70
2022/11/12 07:22:20;;;;;;;31.77;19.13;;;;;;;6.63;74.81;100097.22;5070541;28;20050;-70
2022/11/12 07:24:46;;;;;;;31.08;17.70;;;;;;;6.68;74.93;100099.28;5071028;28;20039;-70
2022/11/12 07:27:11;;;;;;;28.95;17.95;;;;;;;6.74;74.89;100102.97;5070584;28;20048;-70
2022/11/12 07:29:36;;;;;;;27.52;16.33;;;;;;;6.77;74.96;100092.41;5070099;28;20020;-70
2022/11/12 07:32:02;;;;;;;29.10;16.98;;;;;;;6.85;75.14;100094.00;5070196;28;20020;-70
2022/11/12 07:34:27;;;;;;;29.52;16.58;;;;;;;6.93;74.81;100095.56;5070637;28;20017;-70
2022/11/12 07:36:53;;;;;;;29.20;16.75;;;;;;;6.99;74.88;100092.72;5070562;28;20031;-70
2022/11/12 07:39:18;;;;;;;27.67;16.05;;;;;;;7.05;74.99;100095.59;5069639;28;20048;-70
2022/11/12 07:41:43;;;;;;;24.02;14.57;;;;;;;7.11;75.04;100090.06;5071885;28;20021;-70
2022/11/12 07:44:09;;;;;;;27.10;15.60;;;;;;;7.19;74.89;100093.50;5070840;28;20596;-70
2022/11/12 07:46:35;;;;;;;25.90;13.85;;;;;;;7.26;74.94;100097.81;5052611;28;20032;-70
2022/11/12 07:49:00;;;;;;;23.48;12.73;;;;;;;7.32;74.54;100093.28;5053311;28;20040;-69
2022/11/12 07:51:27;;;;;;;20.80;12.57;;;;;;;7.39;74.80;100096.75;5070483;28;20021;-70
2022/11/12 07:53:55;;;;;;;22.58;11.27;;;;;;;7.47;74.48;100103.75;5070256;28;20537;-70
2022/11/12 07:56:22;;;;;;;20.27;11.90;;;;;;;7.56;74.87;100110.53;5070754;28;20032;-70
2022/11/12 07:58:49;;;;;;;23.52;12.30;;;;;;;7.66;73.94;100100.94;5070189;28;20024;-70
2022/11/12 08:01:40;;;;;;;22.17;10.95;;;;;;;7.73;74.15;100099.75;5069561;28;20021;-70
2022/11/12 08:04:10;;;;;;;20.30;11.02;;;;;;;7.85;74.06;100098.94;5069406;28;20063;-70
2022/11/12 08:06:36;;;;;;;21.00;10.95;;;;;;;7.94;74.08;100102.13;5070033;28;20024;-69
2022/11/12 08:09:04;;;;;;;25.08;12.88;;;;;;;8.01;74.22;100106.38;5070010;28;20025;-70
2022/11/12 08:11:30;;;;;;;20.95;12.43;;;;;;;8.09;73.87;100105.22;5069484;28;20178;-70
2022/11/12 08:13:56;;;;;;;22.90;13.27;;;;;;;8.19;73.21;100107.34;5069637;28;20029;-69
2022/11/12 08:16:22;;;;;;;25.67;15.98;;;;;;;8.25;73.29;100098.19;5070691;28;20027;-69
2022/11/12 08:18:47;;;;;;;23.67;14.75;;;;;;;8.31;72.96;100112.78;5073801;28;20048;-69
2022/11/12 08:21:15;;;;;;;23.92;16.00;;;;;;;8.39;73.24;100098.75;5070035;28;20115;-69
2022/11/12 08:23:41;;;;;;;22.52;13.88;;;;;;;8.45;73.84;100111.44;5074130;28;20028;-69
2022/11/12 08:26:10;;;;;;;27.35;16.88;;;;;;;8.53;73.87;100103.97;5073879;28;20040;-70
2022/11/12 08:28:36;;;;;;;26.83;15.07;;;;;;;8.60;72.67;100112.84;5073734;28;20032;-70
2022/11/12 08:31:07;;;;;;;23.70;13.18;;;;;;;8.69;72.83;100118.78;5072775;28;20032;-70
2022/11/12 08:33:33;;;;;;;19.20;10.85;;;;;;;8.76;72.80;100116.75;5073755;28;20560;-70
2022/11/12 08:36:03;;;;;;;17.73;10.25;;;;;;;8.82;72.25;100113.00;5073475;28;20027;-70
2022/11/12 08:38:28;;;;;;;16.63;9.55;;;;;;;8.89;72.66;100113.72;5073614;28;20051;-70
2022/11/12 08:40:53;;;;;;;15.23;9.68;;;;;;;8.96;72.33;100115.47;5072982;28;20051;-70
2022/11/12 08:43:19;;;;;;;17.00;9.93;;;;;;;8.99;72.58;100113.06;5073992;28;20047;-70
2022/11/12 08:45:45;;;;;;;19.95;10.93;;;;;;;9.06;71.84;100121.16;5073985;28;20024;-70
2022/11/12 08:48:13;;;;;;;16.27;10.63;;;;;;;9.09;71.50;100123.41;5073498;28;20021;-70
2022/11/12 08:50:39;;;;;;;18.05;10.30;;;;;;;9.14;71.18;100119.91;5073130;28;20112;-70
2022/11/12 08:53:10;;;;;;;18.45;10.20;;;;;;;9.18;70.69;100115.59;5073110;28;20062;-70
2022/11/12 08:55:36;;;;;;;16.58;10.20;;;;;;;9.22;70.76;100122.25;5073607;28;20033;-70
2022/11/12 08:58:02;;;;;;;17.08;10.70;;;;;;;9.27;70.48;100116.03;5070413;28;20039;-71
2022/11/12 09:00:28;;;;;;;16.60;9.98;;;;;;;9.33;71.13;100124.09;5073448;28;20081;-70
2022/11/12 09:02:54;;;;;;;18.15;10.40;;;;;;;9.39;71.27;100125.00;5054878;28;20432;-70
2022/11/12 09:05:19;;;;;;;20.65;11.57;;;;;;;9.44;70.97;100122.38;5073202;28;20032;-70
2022/11/12 09:07:45;;;;;;;19.65;11.38;;;;;;;9.49;69.97;100122.44;5055476;28;20032;-70
2022/11/12 09:10:10;;;;;;;19.63;11.50;;;;;;;9.54;70.40;100132.66;5055133;28;20029;-69
2022/11/12 09:12:36;;;;;;;20.95;12.15;;;;;;;9.60;70.67;100128.09;5070260;28;20548;-70
2022/11/12 09:15:01;;;;;;;20.05;12.10;;;;;;;9.65;69.72;100129.00;5071572;28;20058;-69
2022/11/12 09:17:29;;;;;;;17.55;11.35;;;;;;;9.71;70.25;100129.91;5069500;28;20024;-69
2022/11/12 09:19:55;;;;;;;18.08;11.18;;;;;;;9.80;70.23;100136.66;5041450;28;20048;-70
2022/11/12 09:22:20;;;;;;;17.05;11.15;;;;;;;9.86;69.90;100131.25;5066798;28;20040;-69
2022/11/12 09:24:45;;;;;;;18.98;11.40;;;;;;;9.92;69.35;100127.50;5066897;28;20043;-70
2022/11/12 09:27:11;;;;;;;20.75;12.38;;;;;;;9.98;70.50;100126.50;5065826;28;20120;-70
2022/11/12 09:29:36;;;;;;;17.33;10.82;;;;;;;10.03;70.08;100129.31;5065699;28;20123;-69
2022/11/12 09:32:01;;;;;;;16.48;9.80;;;;;;;10.10;70.58;100118.19;5065168;28;20029;-70
2022/11/12 09:34:27;;;;;;;16.50;9.75;;;;;;;10.16;69.66;100125.41;5069407;28;20116;-70
2022/11/12 09:36:54;;;;;;;18.73;11.85;;;;;;;10.24;69.53;100118.66;5069934;28;20039;-69
2022/11/12 09:39:19;;;;;;;19.20;10.60;;;;;;;10.29;68.92;100124.19;5068779;28;20469;-69
2022/11/12 09:41:44;;;;;;;14.98;8.95;;;;;;;10.35;69.46;100111.38;5070625;28;20037;-70
2022/11/12 09:44:12;;;;;;;17.30;9.70;;;;;;;10.41;68.75;100115.88;5070473;28;20516;-69
2022/11/12 09:46:43;;;;;;;17.77;10.65;;;;;;;10.45;68.94;100119.78;5066708;28;20028;-70
2022/11/12 09:49:19;;;;;;;17.48;10.27;;;;;;;10.51;69.03;100120.66;5068532;28;20052;-71
2022/11/12 09:52:17;;;;;;;16.88;9.63;;;;;;;10.56;68.95;100112.50;5065624;28;20481;-70
2022/11/12 09:54:42;;;;;;;15.60;9.23;;;;;;;10.62;68.86;100116.97;5068039;28;20041;-70
2022/11/12 09:57:11;;;;;;;16.23;9.57;;;;;;;10.65;68.14;100115.63;5068822;28;20028;-70
2022/11/12 09:59:40;;;;;;;13.18;7.90;;;;;;;10.68;68.02;100110.47;5063632;28;20032;-71
2022/11/12 10:02:11;;;;;;;13.13;8.55;;;;;;;10.71;68.52;100109.94;5049064;28;20388;-70
2022/11/12 10:04:43;;;;;;;15.15;7.72;;;;;;;10.76;68.28;100097.38;5068226;28;20089;-70
2022/11/12 10:07:15;;;;;;;11.73;6.60;;;;;;;10.82;68.49;100102.66;5067018;28;20209;-69
2022/11/12 10:09:49;;;;;;;11.52;6.30;;;;;;;10.88;68.33;100103.53;5067472;28;20538;-69
2022/11/12 10:13:07;;;;;;;10.07;5.50;;;;;;;10.92;67.44;100101.94;5068131;28;20035;-70
2022/11/12 10:18:53;;;;;;;10.40;5.13;;;;;;;11.05;67.76;100103.44;5068648;28;20097;-69
2022/11/12 10:21:19;;;;;;;9.38;5.00;;;;;;;11.11;68.04;100102.41;5068772;28;20503;-70
2022/11/12 10:23:46;;;;;;;8.82;4.88;;;;;;;11.17;68.37;100109.59;5066726;28;20056;-70
2022/11/12 10:26:17;;;;;;;14.43;5.00;;;;;;;11.21;68.06;100107.16;5065976;28;21608;-70
2022/11/12 10:29:02;;;;;;;9.23;5.00;;;;;;;11.25;67.87;100096.50;5065789;28;20649;-69
2022/11/12 10:31:28;;;;;;;9.73;5.13;;;;;;;11.32;67.99;100105.34;5063242;28;20032;-69
2022/11/12 10:34:17;;;;;;;10.32;5.25;;;;;;;11.36;67.62;100102.91;5065854;28;20467;-69
2022/11/12 10:36:47;;;;;;;10.40;5.40;;;;;;;11.42;67.51;100101.88;5066650;28;20030;-69
2022/11/12 10:39:35;;;;;;;9.18;5.07;;;;;;;11.45;67.55;100096.66;5066603;28;20052;-69
2022/11/12 10:42:18;;;;;;;11.60;5.28;;;;;;;11.51;67.02;100114.03;5067265;28;20031;-69
2022/11/12 10:44:44;;;;;;;10.80;4.82;;;;;;;11.54;67.37;100104.44;5066641;28;20507;-70
2022/11/12 10:47:37;;;;;;;10.30;4.88;;;;;;;11.58;67.62;100106.41;5064803;28;20024;-70
2022/11/12 10:50:19;;;;;;;8.90;5.07;;;;;;;11.66;66.84;100101.50;5067285;28;20428;-69
2022/11/12 10:52:57;;;;;;;9.88;5.63;;;;;;;11.69;66.81;100106.47;5067970;28;20290;-69
2022/11/12 10:55:22;;;;;;;8.88;5.57;;;;;;;11.75;67.11;100105.41;5068568;28;20052;-69
2022/11/12 10:58:19;;;;;;;8.77;5.13;;;;;;;11.79;67.08;100095.56;5069203;28;20029;-69
2022/11/12 11:01:04;;;;;;;8.60;5.18;;;;;;;11.88;67.28;100107.72;5049261;28;20048;-69
2022/11/12 11:03:44;;;;;;;10.18;5.05;;;;;;;11.94;67.23;100107.75;5069052;28;20028;-70
2022/11/12 11:06:12;;;;;;;8.95;4.53;;;;;;;12.00;66.65;100101.25;5068283;28;20039;-69
2022/11/12 11:08:41;;;;;;;10.57;5.00;;;;;;;12.06;66.51;100105.66;5069054;28;20020;-69
2022/11/12 11:11:09;;;;;;;10.10;5.07;;;;;;;12.10;66.68;100098.53;5068826;28;20020;-70
2022/11/12 11:13:35;;;;;;;10.82;6.07;;;;;;;12.16;66.61;100091.16;5066832;28;20037;-69
2022/11/12 11:16:06;;;;;;;7.20;4.80;;;;;;;12.19;66.30;100096.94;5069217;28;20091;-70
2022/11/12 11:18:37;;;;;;;7.35;4.50;;;;;;;12.27;66.31;100097.53;5069908;28;20465;-69
2022/11/12 11:21:15;;;;;;;9.45;4.55;;;;;;;12.28;65.80;100100.00;5069320;28;20149;-69
2022/11/12 11:24:02;;;;;;;8.63;4.00;;;;;;;12.29;65.70;100093.41;5069407;28;20024;-70
2022/11/12 11:26:47;;;;;;;7.53;3.72;;;;;;;12.34;65.39;100090.69;5069114;28;20037;-70
2022/11/12 11:29:48;;;;;;;5.82;3.80;;;;;;;12.38;65.51;100088.25;5069858;28;20047;-69
2022/11/12 11:32:32;;;;;;;9.02;3.72;;;;;;;12.44;65.41;100095.41;5034387;28;20041;-70
2022/11/12 11:35:15;;;;;;;6.70;3.75;;;;;;;12.50;64.94;100099.00;5066358;28;20037;-70
2022/11/12 11:37:55;;;;;;;6.78;3.40;;;;;;;12.56;64.92;100102.59;5068598;28;20507;-70
2022/11/12 11:40:35;;;;;;;6.72;3.35;;;;;;;12.60;64.72;100092.72;5067590;28;20068;-70
2022/11/12 11:43:16;;;;;;;7.80;3.40;;;;;;;12.65;64.69;100096.31;5067641;28;20029;-69
2022/11/12 11:46:03;;;;;;;7.75;4.20;;;;;;;12.70;64.34;100089.16;5068563;28;20491;-70
2022/11/12 11:48:51;;;;;;;7.20;4.60;;;;;;;12.75;64.18;100087.28;5067534;28;20024;-70
2022/11/12 11:51:58;;;;;;;8.93;4.63;;;;;;;12.80;64.31;100080.94;5069932;28;20067;-70
2022/11/12 11:54:58;;;;;;;7.32;4.50;;;;;;;12.88;64.07;100082.31;5072469;28;20029;-70